createdAt,value
2022-08-07T00:00:19.595Z,102508.59
2022-08-07T00:02:40.445Z,102509.47
2022-08-07T00:04:45.386Z,102511.06
2022-08-07T00:06:51.763Z,102502.34
2022-08-07T00:08:54.656Z,102498.84
2022-08-07T00:10:58.174Z,102497.03
2022-08-07T00:13:09.749Z,102501.34
2022-08-07T00:15:25.896Z,102503.88
2022-08-07T00:17:40.643Z,102503.78
2022-08-07T00:20:01.461Z,102500.34
2022-08-07T00:22:05.297Z,102502.09
2022-08-07T00:24:08.090Z,102500.25
2022-08-07T00:26:18.599Z,102501.91
2022-08-07T00:28:34.450Z,102497.63
2022-08-07T00:30:47.919Z,102503.69
2022-08-07T00:32:50.773Z,102494.09
2022-08-07T00:34:52.759Z,102497.53
2022-08-07T00:36:55.782Z,102496.63
2022-08-07T00:38:57.820Z,102495.81
2022-08-07T00:41:00.755Z,102493.16
2022-08-07T00:43:02.698Z,102485.34
2022-08-07T00:45:06.838Z,102489.66
2022-08-07T00:47:16.024Z,102486.19
2022-08-07T00:50:19.277Z,102485.31
2022-08-07T00:51:58.325Z,102491.41
2022-08-07T00:54:00.852Z,102477.47
2022-08-07T00:56:03.982Z,102480.97
2022-08-07T00:58:09.384Z,102483.47
2022-08-07T01:00:11.841Z,102484.31
2022-08-07T01:02:28.264Z,102469.56
2022-08-07T01:04:32.597Z,102469.47
2022-08-07T01:06:35.322Z,102473.91
2022-08-07T01:08:38.135Z,102473.03
2022-08-07T01:10:47.672Z,102477.41
2022-08-07T01:12:58.224Z,102476.47
2022-08-07T01:15:03.665Z,102476.38
2022-08-07T01:17:07.081Z,102477.28
2022-08-07T01:19:10.882Z,102476.28
2022-08-07T01:21:33.338Z,102479.75
2022-08-07T01:23:46.421Z,102481.47
2022-08-07T01:25:55.080Z,102478.94
2022-08-07T01:27:58.481Z,102478.09
2022-08-07T01:30:02.086Z,102475.41
2022-08-07T01:32:05.576Z,102479.84
2022-08-07T01:34:14.663Z,102482.34
2022-08-07T01:36:17.338Z,102478.03
2022-08-07T01:38:24.781Z,102480.72
2022-08-07T01:40:28.805Z,102479.88
2022-08-07T01:42:39.338Z,102469.47
2022-08-07T01:44:53.433Z,102479.91
2022-08-07T01:46:55.738Z,102473.75
2022-08-07T01:49:02.763Z,102478.09
2022-08-07T01:51:24.574Z,102482.34
2022-08-07T01:54:09.938Z,102482.47
2022-08-07T01:56:10.547Z,102477.16
2022-08-07T01:58:27.470Z,102486.81
2022-08-07T02:00:45.271Z,102478.09
2022-08-07T02:03:18.023Z,102476.28
2022-08-07T02:05:48.307Z,102478.09
2022-08-07T02:08:10.251Z,102477.22
2022-08-07T02:10:19.551Z,102481.56
2022-08-07T02:12:29.409Z,102479.84
2022-08-07T02:14:40.887Z,102476.34
2022-08-07T02:16:44.119Z,102478.94
2022-08-07T02:18:48.057Z,102478.09
2022-08-07T02:20:55.875Z,102474.59
2022-08-07T02:23:05.423Z,102475.47
2022-08-07T02:25:13.795Z,102473.75
2022-08-07T02:27:22.820Z,102478.94
2022-08-07T02:29:25.151Z,102475.47
2022-08-07T02:31:34.608Z,102477.25
2022-08-07T02:34:01.883Z,102467.69
2022-08-07T02:36:26.993Z,102472.88
2022-08-07T02:38:31.673Z,102470.22
2022-08-07T02:40:35.956Z,102471.94
2022-08-07T02:42:39.418Z,102465.91
2022-08-07T02:44:47.820Z,102465.91
2022-08-07T02:46:52.628Z,102470.22
2022-08-07T02:48:55.348Z,102474.53
2022-08-07T02:50:59.562Z,102470.19
2022-08-07T02:53:07.237Z,102466.72
2022-08-07T02:55:27.642Z,102467.59
2022-08-07T02:57:34.199Z,102466.72
2022-08-07T02:59:38.083Z,102466.72
2022-08-07T03:01:47.280Z,102471.91
2022-08-07T03:03:56.525Z,102473.66
2022-08-07T03:06:05.938Z,102465.81
2022-08-07T03:08:19.654Z,102465.72
2022-08-07T03:10:32.956Z,102472.63
2022-08-07T03:12:35.884Z,102469.09
2022-08-07T03:14:39.919Z,102469.97
2022-08-07T03:16:43.010Z,102468.22
2022-08-07T03:18:45.122Z,102469.94
2022-08-07T03:20:50.413Z,102472.50
2022-08-07T03:22:55.375Z,102465.53
2022-08-07T03:25:00.159Z,102462.03
2022-08-07T03:27:05.635Z,102462.00
2022-08-07T03:29:14.718Z,102462.84
2022-08-07T03:31:42.301Z,102463.66
2022-08-07T03:33:51.773Z,102468.88
2022-08-07T03:35:54.245Z,102467.13
2022-08-07T03:38:02.334Z,102462.75
2022-08-07T03:40:16.606Z,102467.97
2022-08-07T03:42:19.932Z,102463.53
2022-08-07T03:44:34.214Z,102465.25
2022-08-07T03:46:38.273Z,102461.75
2022-08-07T03:49:02.094Z,102461.72
2022-08-07T03:51:05.070Z,102459.09
2022-08-07T03:53:13.763Z,102459.03
2022-08-07T03:55:17.139Z,102455.53
2022-08-07T03:58:33.676Z,102459.00
2022-08-07T03:59:46.519Z,102463.31
2022-08-07T04:02:03.115Z,102459.84
2022-08-07T04:04:05.675Z,102460.66
2022-08-07T04:06:37.952Z,102463.28
2022-08-07T04:08:34.739Z,102460.63
2022-08-07T04:10:38.690Z,102462.34
2022-08-07T04:12:41.770Z,102459.78
2022-08-07T04:14:47.632Z,102458.81
2022-08-07T04:16:58.304Z,102453.59
2022-08-07T04:19:12.323Z,102457.91
2022-08-07T04:21:19.124Z,102448.34
2022-08-07T04:23:21.839Z,102457.81
2022-08-07T04:25:24.718Z,102461.25
2022-08-07T04:27:36.241Z,102447.38
2022-08-07T04:29:58.643Z,102453.41
2022-08-07T04:32:10.126Z,102452.53
2022-08-07T04:34:16.462Z,102450.81
2022-08-07T04:36:22.691Z,102455.16
2022-08-07T04:38:28.761Z,102455.16
2022-08-07T04:40:32.246Z,102457.78
2022-08-07T04:42:34.709Z,102462.09
2022-08-07T04:44:54.561Z,102457.69
2022-08-07T04:47:56.644Z,102459.44
2022-08-07T04:50:03.501Z,102458.47
2022-08-07T04:52:25.117Z,102463.72
2022-08-07T04:54:40.955Z,102468.91
2022-08-07T04:58:16.042Z,102472.38
2022-08-07T05:00:11.170Z,102473.16
2022-08-07T05:02:24.365Z,102471.41
2022-08-07T05:04:53.743Z,102463.56
2022-08-07T05:07:19.460Z,102468.75
2022-08-07T05:09:45.293Z,102469.59
2022-08-07T05:11:57.333Z,102474.81
2022-08-07T05:14:53.264Z,102473.06
2022-08-07T05:16:44.144Z,102484.34
2022-08-07T05:18:53.441Z,102483.47
2022-08-07T05:21:06.156Z,102485.19
2022-08-07T05:23:15.497Z,102482.59
2022-08-07T05:25:35.608Z,102481.72
2022-08-07T05:28:02.642Z,102476.47
2022-08-07T05:30:02.661Z,102481.72
2022-08-07T05:32:06.541Z,102481.72
2022-08-07T05:34:11.961Z,102475.66
2022-08-07T05:36:22.394Z,102477.38
2022-08-07T05:38:59.485Z,102482.63
2022-08-07T05:40:51.536Z,102487.06
2022-08-07T05:42:56.304Z,102483.56
2022-08-07T05:45:11.829Z,102489.66
2022-08-07T05:47:38.529Z,102487.13
2022-08-07T05:49:44.401Z,102487.13
2022-08-07T05:51:47.391Z,102489.72
2022-08-07T05:54:13.952Z,102499.31
2022-08-07T05:56:13.218Z,102491.41
2022-08-07T05:58:18.857Z,102494.94
2022-08-07T06:00:39.879Z,102498.44
2022-08-07T06:02:45.173Z,102495.88
2022-08-07T06:04:55.196Z,102495.88
2022-08-07T06:07:03.412Z,102501.09
2022-08-07T06:09:07.214Z,102496.78
2022-08-07T06:11:09.896Z,102499.34
2022-08-07T06:13:13.594Z,102504.56
2022-08-07T06:15:19.772Z,102501.09
2022-08-07T06:17:23.042Z,102511.56
2022-08-07T06:19:52.026Z,102506.34
2022-08-07T06:22:15.683Z,102506.44
2022-08-07T06:24:48.172Z,102502.06
2022-08-07T06:26:42.831Z,102506.44
2022-08-07T06:28:53.027Z,102504.72
2022-08-07T06:30:55.244Z,102504.69
2022-08-07T06:32:56.948Z,102506.44
2022-08-07T06:35:02.576Z,102511.69
2022-08-07T06:37:12.357Z,102508.19
2022-08-07T06:40:17.916Z,102508.22
2022-08-07T06:42:07.475Z,102506.50
2022-08-07T06:44:13.060Z,102509.13
2022-08-07T06:46:31.131Z,102512.66
2022-08-07T06:48:33.561Z,102510.03
2022-08-07T06:50:39.534Z,102514.34
2022-08-07T06:52:53.193Z,102516.19
2022-08-07T06:55:32.465Z,102510.97
2022-08-07T06:57:22.089Z,102507.44
2022-08-07T07:00:14.539Z,102514.34
2022-08-07T07:02:08.489Z,102513.69
2022-08-07T07:04:28.499Z,102510.06
2022-08-07T07:06:39.403Z,102512.72
2022-08-07T07:09:23.530Z,102511.09
2022-08-07T07:12:08.961Z,102509.38
2022-08-07T07:13:57.833Z,102508.53
2022-08-07T07:16:14.636Z,102513.81
2022-08-07T07:18:47.872Z,102512.16
2022-08-07T07:20:57.615Z,102510.50
2022-08-07T07:24:06.052Z,102505.34
2022-08-07T07:26:34.379Z,102506.25
2022-08-07T07:28:02.621Z,102507.13
2022-08-07T07:30:09.884Z,102508.09
2022-08-07T07:32:16.741Z,102503.78
2022-08-07T07:34:22.593Z,102506.44
2022-08-07T07:36:34.730Z,102506.50
2022-08-07T07:38:43.373Z,102505.66
2022-08-07T07:40:49.139Z,102506.59
2022-08-07T07:42:55.613Z,102510.16
2022-08-07T07:44:59.890Z,102511.09
2022-08-07T07:47:15.943Z,102511.16
2022-08-07T07:50:35.221Z,102513.72
2022-08-07T07:51:58.550Z,102514.69
2022-08-07T07:54:03.266Z,102517.31
2022-08-07T07:56:06.694Z,102516.53
2022-08-07T07:58:10.439Z,102518.31
2022-08-07T08:00:14.989Z,102520.06
2022-08-07T08:02:36.630Z,102519.25
2022-08-07T08:04:40.177Z,102522.75
2022-08-07T08:06:52.094Z,102515.81
2022-08-07T08:08:55.384Z,102519.31
2022-08-07T08:11:03.963Z,102508.09
2022-08-07T08:13:10.410Z,102513.34
2022-08-07T08:15:16.939Z,102512.53
2022-08-07T08:17:57.333Z,102515.19
2022-08-07T08:20:17.550Z,102512.59
2022-08-07T08:22:36.436Z,102510.94
2022-08-07T08:25:25.035Z,102513.56
2022-08-07T08:27:44.010Z,102507.50
2022-08-07T08:30:05.904Z,102503.19
2022-08-07T08:32:18.874Z,102497.09
2022-08-07T08:34:30.118Z,102503.25
2022-08-07T08:36:34.516Z,102511.16
2022-08-07T08:38:41.033Z,102508.44
2022-08-07T08:40:49.757Z,102502.47
2022-08-07T08:43:01.533Z,102495.53
2022-08-07T08:45:19.880Z,102500.72
2022-08-07T08:47:51.945Z,102496.47
2022-08-07T08:50:39.557Z,102494.81
2022-08-07T08:53:03.910Z,102494.84
2022-08-07T08:55:54.464Z,102493.16
2022-08-07T08:58:13.255Z,102490.50
2022-08-07T09:00:32.879Z,102488.81
2022-08-07T09:03:01.906Z,102480.16
2022-08-07T09:05:43.505Z,102479.31
2022-08-07T09:07:57.460Z,102481.97
2022-08-07T09:10:38.808Z,102475.91
2022-08-07T09:13:06.933Z,102476.84
2022-08-07T09:16:20.482Z,102468.19
2022-08-07T09:17:59.515Z,102466.44
2022-08-07T09:20:34.942Z,102468.25
2022-08-07T09:24:33.255Z,102464.78
2022-08-07T09:25:56.429Z,102465.78
2022-08-07T09:29:22.270Z,102454.47
2022-08-07T09:30:55.185Z,102458.88
2022-08-07T09:33:16.858Z,102459.78
2022-08-07T09:36:04.797Z,102461.53
2022-08-07T09:38:10.466Z,102457.19
2022-08-07T09:40:47.130Z,102445.88
2022-08-07T09:43:40.292Z,102443.31
2022-08-07T09:47:25.074Z,102438.06
2022-08-07T09:48:55.873Z,102438.97
2022-08-07T09:52:15.631Z,102432.84
2022-08-07T09:54:02.831Z,102430.22
2022-08-07T09:56:34.042Z,102430.22
2022-08-07T09:59:13.798Z,102428.47
2022-08-07T10:01:52.349Z,102424.94
2022-08-07T10:04:15.841Z,102424.91
2022-08-07T10:06:27.345Z,102427.47
2022-08-07T10:09:05.333Z,102419.59
2022-08-07T10:12:03.424Z,102411.63
2022-08-07T10:14:30.309Z,102414.13
2022-08-07T10:16:53.664Z,102418.44
2022-08-07T10:19:11.101Z,102408.69
2022-08-07T10:22:14.906Z,102410.28
2022-08-07T10:24:30.869Z,102399.59
2022-08-07T10:26:53.691Z,102398.50
2022-08-07T10:29:11.247Z,102394.91
2022-08-07T10:31:50.528Z,102397.41
2022-08-07T10:34:18.492Z,102392.78
2022-08-07T10:36:52.175Z,102388.25
2022-08-07T10:39:41.994Z,102400.44
2022-08-07T10:42:09.219Z,102391.44
2022-08-07T10:44:33.767Z,102389.50
2022-08-07T10:46:47.429Z,102387.50
2022-08-07T10:48:57.991Z,102383.06
2022-08-07T10:51:57.570Z,102377.84
2022-08-07T10:54:01.155Z,102379.50
2022-08-07T10:56:09.602Z,102376.66
2022-08-07T10:58:40.203Z,102380.03
2022-08-07T11:01:35.836Z,102371.81
2022-08-07T11:04:17.061Z,102372.47
2022-08-07T11:06:47.998Z,102372.28
2022-08-07T11:09:11.467Z,102364.13
2022-08-07T11:11:39.968Z,102352.69
2022-08-07T11:14:43.774Z,102356.97
2022-08-07T11:16:29.852Z,102358.34
2022-08-07T11:18:51.075Z,102348.41
2022-08-07T11:20:56.366Z,102357.84
2022-08-07T11:23:30.815Z,102351.84
2022-08-07T11:25:49.924Z,102345.50
2022-08-07T11:28:04.872Z,102341.03
2022-08-07T11:30:18.361Z,102331.94
2022-08-07T11:32:45.047Z,102338.91
2022-08-07T11:35:09.961Z,102333.59
2022-08-07T11:37:38.380Z,102331.84
2022-08-07T11:40:21.903Z,102325.09
2022-08-07T11:42:30.706Z,102321.63
2022-08-07T11:44:52.106Z,102320.41
2022-08-07T11:47:26.159Z,102320.25
2022-08-07T11:50:31.634Z,102311.16
2022-08-07T11:52:52.094Z,102309.94
2022-08-07T11:55:18.686Z,102308.06
2022-08-07T11:58:00.253Z,102303.41
2022-08-07T12:00:36.311Z,102296.09
2022-08-07T12:03:44.324Z,102303.88
2022-08-07T12:05:47.634Z,102305.09
2022-08-07T12:08:05.424Z,102307.53
2022-08-07T12:10:19.472Z,102295.13
2022-08-07T12:12:37.790Z,102298.59
2022-08-07T12:15:03.678Z,102289.63
2022-08-07T12:17:19.988Z,102292.63
2022-08-07T12:19:56.825Z,102282.91
2022-08-07T12:22:39.466Z,102290.53
2022-08-07T12:26:05.759Z,102277.72
2022-08-07T12:28:09.225Z,102270.31
2022-08-07T12:30:13.238Z,102278.75
2022-08-07T12:32:31.956Z,102271.25
2022-08-07T12:34:38.873Z,102272.56
2022-08-07T12:36:42.964Z,102273.13
2022-08-07T12:38:57.432Z,102270.16
2022-08-07T12:41:02.482Z,102268.16
2022-08-07T12:43:09.796Z,102267.91
2022-08-07T12:45:23.651Z,102263.13
2022-08-07T12:47:40.722Z,102264.59
2022-08-07T12:50:38.245Z,102267.25
2022-08-07T12:52:34.932Z,102257.91
2022-08-07T12:54:55.069Z,102265.06
2022-08-07T12:57:07.431Z,102257.66
2022-08-07T12:59:20.736Z,102256.84
2022-08-07T13:01:55.781Z,102247.69
2022-08-07T13:04:05.426Z,102242.88
2022-08-07T13:07:00.430Z,102248.13
2022-08-07T13:09:12.694Z,102252.09
2022-08-07T13:12:01.783Z,102250.41
2022-08-07T13:14:24.428Z,102251.88
2022-08-07T13:16:37.153Z,102249.56
2022-08-07T13:19:35.098Z,102243.81
2022-08-07T13:21:57.683Z,102245.03
2022-08-07T13:24:17.105Z,102236.88
2022-08-07T13:26:33.822Z,102242.44
2022-08-07T13:28:46.558Z,102227.88
2022-08-07T13:31:32.200Z,102232.28
2022-08-07T13:34:29.821Z,102231.25
2022-08-07T13:36:30.667Z,102230.13
2022-08-07T13:39:02.818Z,102221.72
2022-08-07T13:41:50.810Z,102223.84
2022-08-07T13:44:00.558Z,102223.59
2022-08-07T13:46:21.529Z,102220.19
2022-08-07T13:48:34.601Z,102226.16
2022-08-07T13:50:44.915Z,102220.09
2022-08-07T13:53:03.250Z,102213.00
2022-08-07T13:55:19.544Z,102207.84
2022-08-07T13:57:32.150Z,102212.41
2022-08-07T13:59:53.126Z,102194.16
2022-08-07T14:02:10.747Z,102198.41
2022-08-07T14:04:16.756Z,102199.63
2022-08-07T14:06:24.657Z,102192.91
2022-08-07T14:08:29.606Z,102191.03
2022-08-07T14:10:42.439Z,102188.78
2022-08-07T14:12:55.612Z,102193.16
2022-08-07T14:15:40.509Z,102189.00
2022-08-07T14:18:23.857Z,102178.19
2022-08-07T14:20:42.075Z,102185.19
2022-08-07T14:22:43.704Z,102180.09
2022-08-07T14:24:51.524Z,102182.75
2022-08-07T14:27:00.296Z,102170.75
2022-08-07T14:30:02.973Z,102167.47
2022-08-07T14:33:54.805Z,102166.19
2022-08-07T14:36:01.210Z,102168.25
2022-08-07T14:38:06.239Z,102155.66
2022-08-07T14:40:26.168Z,102156.91
2022-08-07T14:44:59.619Z,102173.25
2022-08-07T14:47:14.743Z,102163.44
2022-08-07T14:49:57.356Z,102165.56
2022-08-07T14:52:04.843Z,102168.56
2022-08-07T14:54:31.057Z,102158.09
2022-08-07T14:56:32.121Z,102159.75
2022-08-07T14:58:37.744Z,102146.75
2022-08-07T15:00:51.084Z,102153.63
2022-08-07T15:02:57.232Z,102159.50
2022-08-07T15:05:01.713Z,102152.81
2022-08-07T15:07:03.938Z,102150.09
2022-08-07T15:09:59.677Z,102158.03
2022-08-07T15:12:01.140Z,102157.81
2022-08-07T15:14:09.948Z,102144.66
2022-08-07T15:16:14.653Z,102141.22
2022-08-07T15:18:33.855Z,102152.44
2022-08-07T15:23:20.435Z,102138.63
2022-08-07T15:30:21.982Z,102135.69
2022-08-07T15:32:39.555Z,102129.94
2022-08-07T15:37:27.819Z,102124.16
2022-08-07T15:39:57.206Z,102129.78
2022-08-07T15:42:43.667Z,102130.38
2022-08-07T15:44:29.054Z,102114.25
2022-08-07T15:49:13.293Z,102112.16
2022-08-07T15:53:55.083Z,102106.72
2022-08-07T15:56:06.009Z,102111.94
2022-08-07T15:58:20.710Z,102107.38
2022-08-07T16:00:33.715Z,102102.13
2022-08-07T16:02:46.568Z,102106.16
2022-08-07T16:04:52.285Z,102101.47
2022-08-07T16:06:57.182Z,102101.75
2022-08-07T16:09:07.803Z,102105.09
2022-08-07T16:11:56.156Z,102092.78
2022-08-07T16:14:03.074Z,102087.19
2022-08-07T16:16:47.768Z,102098.41
2022-08-07T16:19:42.860Z,102091.66
2022-08-07T16:22:14.791Z,102101.13
2022-08-07T16:24:52.845Z,102096.97
2022-08-07T16:27:18.619Z,102098.84
2022-08-07T16:30:11.522Z,102100.59
2022-08-07T16:32:07.577Z,102099.50
2022-08-07T16:34:48.610Z,102096.09
2022-08-07T16:38:04.079Z,102089.25
2022-08-07T16:40:28.081Z,102089.25
2022-08-07T16:42:59.347Z,102093.72
2022-08-07T16:45:29.283Z,102087.81
2022-08-07T16:48:05.584Z,102075.59
2022-08-07T16:50:39.009Z,102093.75
2022-08-07T16:53:09.865Z,102093.66
2022-08-07T16:55:54.853Z,102097.56
2022-08-07T16:58:04.152Z,102090.00
2022-08-07T17:00:10.953Z,102088.06
2022-08-07T17:02:52.983Z,102094.56
2022-08-07T17:06:01.453Z,102096.97
2022-08-07T17:07:55.994Z,102091.78
2022-08-07T17:10:32.361Z,102098.56
2022-08-07T17:12:45.229Z,102097.31
2022-08-07T17:14:53.781Z,102102.63
2022-08-07T17:17:00.186Z,102105.84
2022-08-07T17:19:15.561Z,102101.94
2022-08-07T17:21:51.560Z,102102.56
2022-08-07T17:24:03.388Z,102095.13
2022-08-07T17:26:24.118Z,102103.66
2022-08-07T17:28:50.004Z,102101.13
2022-08-07T17:31:16.439Z,102111.00
2022-08-07T17:34:08.496Z,102106.16
2022-08-07T17:36:13.738Z,102100.16
2022-08-07T17:38:34.219Z,102101.28
2022-08-07T17:42:02.700Z,102098.41
2022-08-07T17:44:00.892Z,102096.13
2022-08-07T17:46:08.107Z,102092.25
2022-08-07T17:48:11.303Z,102096.91
2022-08-07T17:50:18.977Z,102090.84
2022-08-07T17:52:40.276Z,102086.53
2022-08-07T17:54:55.341Z,102089.38
2022-08-07T17:56:59.992Z,102088.56
2022-08-07T17:59:16.995Z,102089.56
2022-08-07T18:01:37.457Z,102087.31
2022-08-07T18:04:03.826Z,102090.94
2022-08-07T18:06:16.629Z,102087.72
2022-08-07T18:09:01.159Z,102095.00
2022-08-07T18:12:06.775Z,102090.84
2022-08-07T18:13:55.200Z,102092.06
2022-08-07T18:16:15.482Z,102097.28
2022-08-07T18:21:11.604Z,102096.56
2022-08-07T18:21:55.275Z,102093.28
2022-08-07T18:24:01.629Z,102098.69
2022-08-07T18:26:15.234Z,102092.91
2022-08-07T18:28:34.563Z,102098.19
2022-08-07T18:30:56.130Z,102091.28
2022-08-07T18:33:26.938Z,102095.94
2022-08-07T18:36:06.087Z,102105.69
2022-08-07T18:38:57.224Z,102102.28
2022-08-07T18:40:53.669Z,102101.53
2022-08-07T18:43:37.169Z,102109.72
2022-08-07T18:46:24.903Z,102106.31
2022-08-07T18:50:19.123Z,102110.88
2022-08-07T18:51:14.869Z,102112.81
2022-08-07T18:53:18.483Z,102115.66
2022-08-07T18:55:55.809Z,102113.22
2022-08-07T18:58:15.049Z,102114.25
2022-08-07T19:00:32.526Z,102114.28
2022-08-07T19:02:52.676Z,102126.75
2022-08-07T19:05:14.818Z,102125.16
2022-08-07T19:07:51.676Z,102125.31
2022-08-07T19:10:09.995Z,102128.06
2022-08-07T19:12:20.990Z,102134.25
2022-08-07T19:15:00.575Z,102130.84
2022-08-07T19:17:16.120Z,102134.50
2022-08-07T19:19:54.726Z,102134.69
2022-08-07T19:22:05.156Z,102140.00
2022-08-07T19:24:30.202Z,102138.31
2022-08-07T19:27:09.102Z,102143.66
2022-08-07T19:30:58.000Z,102147.34
2022-08-07T19:32:07.934Z,102143.03
2022-08-07T19:34:16.118Z,102145.75
2022-08-07T19:36:51.960Z,102151.97
2022-08-07T19:39:00.564Z,102151.22
2022-08-07T19:41:11.944Z,102156.59
2022-08-07T19:43:21.867Z,102148.72
2022-08-07T19:46:07.270Z,102153.38
2022-08-07T19:48:18.839Z,102162.16
2022-08-07T19:50:43.940Z,102160.41
2022-08-07T19:52:59.133Z,102164.03
2022-08-07T19:55:03.470Z,102166.75
2022-08-07T19:58:03.481Z,102167.63
2022-08-07T19:59:41.195Z,102168.59
2022-08-07T20:01:57.695Z,102174.84
2022-08-07T20:04:01.508Z,102172.28
2022-08-07T20:06:15.279Z,102181.16
2022-08-07T20:08:33.835Z,102177.72
2022-08-07T20:10:54.377Z,102178.69
2022-08-07T20:12:59.610Z,102173.44
2022-08-07T20:15:09.661Z,102166.44
2022-08-07T20:17:22.948Z,102164.75
2022-08-07T20:19:47.580Z,102164.78
2022-08-07T20:21:54.220Z,102168.31
2022-08-07T20:24:01.263Z,102171.06
2022-08-07T20:26:09.904Z,102169.31
2022-08-07T20:28:17.153Z,102173.78
2022-08-07T20:30:21.818Z,102179.13
2022-08-07T20:32:39.985Z,102185.31
2022-08-07T20:34:51.073Z,102184.44
2022-08-07T20:36:58.430Z,102178.38
2022-08-07T20:39:06.195Z,102175.75
2022-08-07T20:41:38.305Z,102181.97
2022-08-07T20:43:47.416Z,102178.53
2022-08-07T20:46:26.518Z,102180.34
2022-08-07T20:48:28.727Z,102186.50
2022-08-07T20:50:33.579Z,102190.03
2022-08-07T20:52:51.742Z,102191.84
2022-08-07T20:54:56.415Z,102184.84
2022-08-07T20:57:05.836Z,102188.44
2022-08-07T21:00:04.351Z,102197.22
2022-08-07T21:01:45.697Z,102186.75
2022-08-07T21:04:22.141Z,102192.88
2022-08-07T21:06:28.453Z,102193.84
2022-08-07T21:08:46.664Z,102198.31
2022-08-07T21:10:51.232Z,102194.81
2022-08-07T21:13:00.842Z,102200.97
2022-08-07T21:15:08.025Z,102200.16
2022-08-07T21:18:03.360Z,102206.34
2022-08-07T21:19:51.798Z,102201.13
2022-08-07T21:21:58.680Z,102202.91
2022-08-07T21:24:10.751Z,102209.13
2022-08-07T21:26:43.668Z,102210.13
2022-08-07T21:28:58.163Z,102208.31
2022-08-07T21:31:08.807Z,102208.34
2022-08-07T21:33:21.559Z,102204.91
2022-08-07T21:35:34.586Z,102208.44
2022-08-07T21:38:11.019Z,102208.47
2022-08-07T21:40:35.959Z,102209.34
2022-08-07T21:42:51.200Z,102207.66
2022-08-07T21:46:03.479Z,102205.09
2022-08-07T21:47:50.263Z,102202.47
2022-08-07T21:50:40.642Z,102211.28
2022-08-07T21:53:12.881Z,102210.44
2022-08-07T21:55:46.992Z,102211.38
2022-08-07T21:58:33.583Z,102215.78
2022-08-07T22:01:01.430Z,102218.47
2022-08-07T22:03:30.553Z,102222.91
2022-08-07T22:05:45.190Z,102222.94
2022-08-07T22:07:58.649Z,102234.34
2022-08-07T22:10:05.954Z,102226.56
2022-08-07T22:12:31.672Z,102235.34
2022-08-07T22:14:59.066Z,102239.75
2022-08-07T22:17:04.988Z,102246.84
2022-08-07T22:19:29.970Z,102243.41
2022-08-07T22:22:04.850Z,102250.44
2022-08-07T22:24:19.833Z,102254.00
2022-08-07T22:26:44.598Z,102259.31
2022-08-07T22:29:37.809Z,102258.53
2022-08-07T22:32:05.617Z,102262.03
2022-08-07T22:34:13.736Z,102265.59
2022-08-07T22:36:46.513Z,102270.00
2022-08-07T22:39:05.050Z,102269.16
2022-08-07T22:42:03.521Z,102265.69
2022-08-07T22:44:21.783Z,102277.13
2022-08-07T22:47:01.882Z,102277.16
2022-08-07T22:49:07.665Z,102278.06
2022-08-07T22:51:11.234Z,102275.50
2022-08-07T22:54:06.527Z,102278.19
2022-08-07T22:56:04.840Z,102280.81
2022-08-07T22:58:16.247Z,102284.41
2022-08-07T23:00:32.301Z,102281.78
2022-08-07T23:02:43.981Z,102287.97
2022-08-07T23:06:09.462Z,102291.47
2022-08-07T23:07:42.217Z,102290.69
2022-08-07T23:10:38.014Z,102301.22
2022-08-07T23:13:01.623Z,102300.38
2022-08-07T23:16:07.070Z,102290.78
2022-08-07T23:18:25.836Z,102297.81
2022-08-07T23:21:06.144Z,102299.63
2022-08-07T23:24:06.043Z,102297.00
2022-08-07T23:26:18.399Z,102297.00
2022-08-07T23:28:28.634Z,102293.50
2022-08-07T23:30:43.260Z,102292.66
2022-08-07T23:34:33.935Z,102298.75
2022-08-07T23:36:39.045Z,102290.91
2022-08-07T23:39:15.777Z,102298.81
2022-08-07T23:42:04.211Z,102290.94
2022-08-07T23:44:13.176Z,102298.81
2022-08-07T23:46:35.125Z,102295.34
2022-08-07T23:49:01.401Z,102295.34
2022-08-07T23:53:01.181Z,102290.97
2022-08-07T23:54:46.013Z,102298.00
2022-08-07T23:57:09.205Z,102290.16
